sensor_id;sensor_type;location;lat;lon;timestamp;temperature;humidity
13074;DHT22;6603;47.066;15.396;2024-02-23T00:00:52;7.50;99.90
13074;DHT22;6603;47.066;15.396;2024-02-23T00:03:18;7.40;98.40
13074;DHT22;6603;47.066;15.396;2024-02-23T00:05:44;7.40;92.40
13074;DHT22;6603;47.066;15.396;2024-02-23T00:08:10;7.40;65.30
13074;DHT22;6603;47.066;15.396;2024-02-23T00:10:36;7.50;68.10
13074;DHT22;6603;47.066;15.396;2024-02-23T00:13:02;7.60;36.60
13074;DHT22;6603;47.066;15.396;2024-02-23T00:15:28;7.50;49.20
13074;DHT22;6603;47.066;15.396;2024-02-23T00:17:53;7.50;75.80
13074;DHT22;6603;47.066;15.396;2024-02-23T00:20:20;7.40;77.30
13074;DHT22;6603;47.066;15.396;2024-02-23T00:22:46;7.40;80.20
13074;DHT22;6603;47.066;15.396;2024-02-23T00:25:12;7.40;69.70
13074;DHT22;6603;47.066;15.396;2024-02-23T00:27:38;7.50;51.40
13074;DHT22;6603;47.066;15.396;2024-02-23T00:30:06;7.40;91.00
13074;DHT22;6603;47.066;15.396;2024-02-23T00:32:32;7.40;97.50
13074;DHT22;6603;47.066;15.396;2024-02-23T00:34:58;7.40;76.30
13074;DHT22;6603;47.066;15.396;2024-02-23T00:37:24;7.40;56.50
13074;DHT22;6603;47.066;15.396;2024-02-23T00:39:50;7.30;90.40
13074;DHT22;6603;47.066;15.396;2024-02-23T00:42:16;7.20;99.90
13074;DHT22;6603;47.066;15.396;2024-02-23T00:44:42;7.20;89.50
13074;DHT22;6603;47.066;15.396;2024-02-23T00:47:08;7.20;99.90
13074;DHT22;6603;47.066;15.396;2024-02-23T00:49:35;7.10;99.90
13074;DHT22;6603;47.066;15.396;2024-02-23T00:52:01;7.10;99.90
13074;DHT22;6603;47.066;15.396;2024-02-23T00:54:26;7.10;99.90
13074;DHT22;6603;47.066;15.396;2024-02-23T00:56:52;7.10;99.90
13074;DHT22;6603;47.066;15.396;2024-02-23T00:59:18;7.10;99.90
13074;DHT22;6603;47.066;15.396;2024-02-23T01:01:44;7.10;99.90
13074;DHT22;6603;47.066;15.396;2024-02-23T01:04:10;7.10;99.90
13074;DHT22;6603;47.066;15.396;2024-02-23T01:06:36;7.10;99.90
13074;DHT22;6603;47.066;15.396;2024-02-23T01:09:02;7.00;99.90
13074;DHT22;6603;47.066;15.396;2024-02-23T01:11:30;7.00;99.90
13074;DHT22;6603;47.066;15.396;2024-02-23T01:13:55;7.10;99.90
13074;DHT22;6603;47.066;15.396;2024-02-23T01:16:22;7.10;99.90
13074;DHT22;6603;47.066;15.396;2024-02-23T01:18:48;7.10;99.90
13074;DHT22;6603;47.066;15.396;2024-02-23T01:21:14;7.10;99.90
13074;DHT22;6603;47.066;15.396;2024-02-23T01:23:40;7.00;99.90
13074;DHT22;6603;47.066;15.396;2024-02-23T01:26:06;7.00;99.90
13074;DHT22;6603;47.066;15.396;2024-02-23T01:28:32;7.10;99.90
13074;DHT22;6603;47.066;15.396;2024-02-23T01:30:58;7.00;99.90
13074;DHT22;6603;47.066;15.396;2024-02-23T01:33:25;7.00;99.90
13074;DHT22;6603;47.066;15.396;2024-02-23T01:35:51;7.00;99.90
13074;DHT22;6603;47.066;15.396;2024-02-23T01:38:16;7.00;99.90
13074;DHT22;6603;47.066;15.396;2024-02-23T01:40:47;7.10;99.90
13074;DHT22;6603;47.066;15.396;2024-02-23T01:43:13;7.10;99.90
13074;DHT22;6603;47.066;15.396;2024-02-23T01:45:39;7.10;99.90
13074;DHT22;6603;47.066;15.396;2024-02-23T01:48:06;7.00;99.90
13074;DHT22;6603;47.066;15.396;2024-02-23T01:50:32;6.90;99.90
13074;DHT22;6603;47.066;15.396;2024-02-23T01:53:00;6.90;99.90
13074;DHT22;6603;47.066;15.396;2024-02-23T01:55:28;6.90;99.90
13074;DHT22;6603;47.066;15.396;2024-02-23T01:57:56;6.80;99.90
13074;DHT22;6603;47.066;15.396;2024-02-23T02:00:22;6.80;99.90
13074;DHT22;6603;47.066;15.396;2024-02-23T02:02:48;6.90;99.90
13074;DHT22;6603;47.066;15.396;2024-02-23T02:05:15;6.80;99.90
13074;DHT22;6603;47.066;15.396;2024-02-23T02:07:41;6.70;99.90
13074;DHT22;6603;47.066;15.396;2024-02-23T02:10:09;6.80;99.90
13074;DHT22;6603;47.066;15.396;2024-02-23T02:12:35;6.90;99.90
13074;DHT22;6603;47.066;15.396;2024-02-23T02:15:02;6.90;99.90
13074;DHT22;6603;47.066;15.396;2024-02-23T02:17:28;6.90;99.90
13074;DHT22;6603;47.066;15.396;2024-02-23T02:19:54;6.90;99.90
13074;DHT22;6603;47.066;15.396;2024-02-23T02:22:20;6.90;99.90
13074;DHT22;6603;47.066;15.396;2024-02-23T02:24:46;6.90;99.90
13074;DHT22;6603;47.066;15.396;2024-02-23T02:27:14;7.00;99.90
13074;DHT22;6603;47.066;15.396;2024-02-23T02:29:40;6.90;99.90
13074;DHT22;6603;47.066;15.396;2024-02-23T02:32:06;6.90;99.90
13074;DHT22;6603;47.066;15.396;2024-02-23T02:34:33;6.90;99.90
13074;DHT22;6603;47.066;15.396;2024-02-23T02:37:00;6.80;99.90
13074;DHT22;6603;47.066;15.396;2024-02-23T02:39:26;6.80;99.90
13074;DHT22;6603;47.066;15.396;2024-02-23T02:41:52;6.90;99.90
13074;DHT22;6603;47.066;15.396;2024-02-23T02:44:18;6.90;99.90
13074;DHT22;6603;47.066;15.396;2024-02-23T02:46:44;6.80;99.90
13074;DHT22;6603;47.066;15.396;2024-02-23T02:49:11;6.90;99.90
13074;DHT22;6603;47.066;15.396;2024-02-23T02:51:37;6.80;99.90
13074;DHT22;6603;47.066;15.396;2024-02-23T02:54:04;6.90;99.90
13074;DHT22;6603;47.066;15.396;2024-02-23T02:56:30;6.80;99.90
13074;DHT22;6603;47.066;15.396;2024-02-23T02:58:56;6.80;99.90
13074;DHT22;6603;47.066;15.396;2024-02-23T03:01:22;6.80;99.90
13074;DHT22;6603;47.066;15.396;2024-02-23T03:03:48;6.80;99.90
13074;DHT22;6603;47.066;15.396;2024-02-23T03:06:14;6.90;99.90
13074;DHT22;6603;47.066;15.396;2024-02-23T03:08:42;6.90;99.90
13074;DHT22;6603;47.066;15.396;2024-02-23T03:11:08;6.80;99.90
13074;DHT22;6603;47.066;15.396;2024-02-23T03:13:34;6.80;99.90
13074;DHT22;6603;47.066;15.396;2024-02-23T03:16:00;6.80;99.90
13074;DHT22;6603;47.066;15.396;2024-02-23T03:18:26;6.80;99.90
13074;DHT22;6603;47.066;15.396;2024-02-23T03:20:55;6.80;99.90
13074;DHT22;6603;47.066;15.396;2024-02-23T03:23:21;6.80;99.90
13074;DHT22;6603;47.066;15.396;2024-02-23T03:25:47;6.80;99.90
13074;DHT22;6603;47.066;15.396;2024-02-23T03:28:13;6.80;99.90
13074;DHT22;6603;47.066;15.396;2024-02-23T03:30:39;6.80;99.90
13074;DHT22;6603;47.066;15.396;2024-02-23T03:33:04;6.80;99.90
13074;DHT22;6603;47.066;15.396;2024-02-23T03:35:30;6.90;99.90
13074;DHT22;6603;47.066;15.396;2024-02-23T03:37:56;6.90;99.90
13074;DHT22;6603;47.066;15.396;2024-02-23T03:40:22;6.90;99.90
13074;DHT22;6603;47.066;15.396;2024-02-23T03:42:48;6.90;99.90
13074;DHT22;6603;47.066;15.396;2024-02-23T03:45:14;6.90;99.90
13074;DHT22;6603;47.066;15.396;2024-02-23T03:47:40;6.90;99.90
13074;DHT22;6603;47.066;15.396;2024-02-23T03:50:06;7.00;99.90
13074;DHT22;6603;47.066;15.396;2024-02-23T03:52:33;7.00;99.90
13074;DHT22;6603;47.066;15.396;2024-02-23T03:54:59;7.00;99.90
13074;DHT22;6603;47.066;15.396;2024-02-23T03:57:25;7.00;99.90
13074;DHT22;6603;47.066;15.396;2024-02-23T03:59:54;6.90;99.90
13074;DHT22;6603;47.066;15.396;2024-02-23T04:02:21;6.90;99.90
13074;DHT22;6603;47.066;15.396;2024-02-23T04:04:48;6.90;99.90
13074;DHT22;6603;47.066;15.396;2024-02-23T04:07:14;6.90;99.90
13074;DHT22;6603;47.066;15.396;2024-02-23T04:09:40;6.90;99.90
13074;DHT22;6603;47.066;15.396;2024-02-23T04:12:06;6.80;99.90
13074;DHT22;6603;47.066;15.396;2024-02-23T04:14:33;6.80;99.90
13074;DHT22;6603;47.066;15.396;2024-02-23T04:17:05;6.70;99.90
13074;DHT22;6603;47.066;15.396;2024-02-23T04:19:31;6.80;99.90
13074;DHT22;6603;47.066;15.396;2024-02-23T04:21:56;6.80;99.90
13074;DHT22;6603;47.066;15.396;2024-02-23T04:24:22;6.90;99.90
13074;DHT22;6603;47.066;15.396;2024-02-23T04:26:48;6.80;99.90
13074;DHT22;6603;47.066;15.396;2024-02-23T04:29:14;6.80;99.90
13074;DHT22;6603;47.066;15.396;2024-02-23T04:31:40;6.80;99.90
13074;DHT22;6603;47.066;15.396;2024-02-23T04:34:06;6.80;99.90
13074;DHT22;6603;47.066;15.396;2024-02-23T04:36:32;6.70;99.90
13074;DHT22;6603;47.066;15.396;2024-02-23T04:38:58;6.80;99.90
13074;DHT22;6603;47.066;15.396;2024-02-23T04:41:24;6.80;99.90
13074;DHT22;6603;47.066;15.396;2024-02-23T04:43:50;6.80;99.90
13074;DHT22;6603;47.066;15.396;2024-02-23T04:46:16;6.80;99.90
13074;DHT22;6603;47.066;15.396;2024-02-23T04:48:42;6.80;99.90
13074;DHT22;6603;47.066;15.396;2024-02-23T04:51:08;6.80;99.90
13074;DHT22;6603;47.066;15.396;2024-02-23T04:53:38;6.80;99.90
13074;DHT22;6603;47.066;15.396;2024-02-23T04:56:04;6.80;99.90
13074;DHT22;6603;47.066;15.396;2024-02-23T04:58:30;6.80;99.90
13074;DHT22;6603;47.066;15.396;2024-02-23T05:00:56;6.80;99.90
13074;DHT22;6603;47.066;15.396;2024-02-23T05:03:22;6.90;99.90
13074;DHT22;6603;47.066;15.396;2024-02-23T05:05:48;6.90;99.90
13074;DHT22;6603;47.066;15.396;2024-02-23T05:08:20;6.80;99.90
13074;DHT22;6603;47.066;15.396;2024-02-23T05:10:49;6.60;99.90
13074;DHT22;6603;47.066;15.396;2024-02-23T05:13:15;6.70;99.90
13074;DHT22;6603;47.066;15.396;2024-02-23T05:15:40;6.70;99.90
13074;DHT22;6603;47.066;15.396;2024-02-23T05:18:06;6.70;99.90
13074;DHT22;6603;47.066;15.396;2024-02-23T05:20:32;6.70;99.90
13074;DHT22;6603;47.066;15.396;2024-02-23T05:22:58;6.60;99.90
13074;DHT22;6603;47.066;15.396;2024-02-23T05:25:24;6.60;99.90
13074;DHT22;6603;47.066;15.396;2024-02-23T05:27:51;6.60;99.90
13074;DHT22;6603;47.066;15.396;2024-02-23T05:30:17;6.50;99.90
13074;DHT22;6603;47.066;15.396;2024-02-23T05:32:43;6.50;99.90
13074;DHT22;6603;47.066;15.396;2024-02-23T05:35:09;6.50;99.90
13074;DHT22;6603;47.066;15.396;2024-02-23T05:37:36;6.50;99.90
13074;DHT22;6603;47.066;15.396;2024-02-23T05:40:03;6.50;99.90
13074;DHT22;6603;47.066;15.396;2024-02-23T05:42:33;6.50;99.90
13074;DHT22;6603;47.066;15.396;2024-02-23T05:44:59;6.50;99.90
13074;DHT22;6603;47.066;15.396;2024-02-23T05:47:25;6.40;99.90
13074;DHT22;6603;47.066;15.396;2024-02-23T05:49:50;6.30;99.90
13074;DHT22;6603;47.066;15.396;2024-02-23T05:52:16;6.30;99.90
13074;DHT22;6603;47.066;15.396;2024-02-23T05:54:42;6.20;99.90
13074;DHT22;6603;47.066;15.396;2024-02-23T05:57:08;6.20;99.90
13074;DHT22;6603;47.066;15.396;2024-02-23T05:59:34;6.10;99.90
13074;DHT22;6603;47.066;15.396;2024-02-23T06:02:00;6.10;99.90
13074;DHT22;6603;47.066;15.396;2024-02-23T06:04:26;6.10;99.90
13074;DHT22;6603;47.066;15.396;2024-02-23T06:06:52;6.00;99.90
13074;DHT22;6603;47.066;15.396;2024-02-23T06:09:18;6.00;99.90
13074;DHT22;6603;47.066;15.396;2024-02-23T06:11:44;6.10;99.90
13074;DHT22;6603;47.066;15.396;2024-02-23T06:14:10;5.90;99.90
13074;DHT22;6603;47.066;15.396;2024-02-23T06:16:36;5.70;99.90
13074;DHT22;6603;47.066;15.396;2024-02-23T06:19:03;5.70;99.90
13074;DHT22;6603;47.066;15.396;2024-02-23T06:21:29;5.80;99.90
13074;DHT22;6603;47.066;15.396;2024-02-23T06:23:55;5.70;99.90
13074;DHT22;6603;47.066;15.396;2024-02-23T06:26:21;5.80;99.90
13074;DHT22;6603;47.066;15.396;2024-02-23T06:28:47;5.80;99.90
13074;DHT22;6603;47.066;15.396;2024-02-23T06:31:14;5.60;99.90
13074;DHT22;6603;47.066;15.396;2024-02-23T06:33:40;5.70;99.90
13074;DHT22;6603;47.066;15.396;2024-02-23T06:36:07;5.80;99.90
13074;DHT22;6603;47.066;15.396;2024-02-23T06:38:34;5.80;99.90
13074;DHT22;6603;47.066;15.396;2024-02-23T06:41:00;5.90;99.90
13074;DHT22;6603;47.066;15.396;2024-02-23T06:43:26;6.00;99.90
13074;DHT22;6603;47.066;15.396;2024-02-23T06:45:52;6.00;99.90
13074;DHT22;6603;47.066;15.396;2024-02-23T06:48:18;6.00;99.90
13074;DHT22;6603;47.066;15.396;2024-02-23T06:50:44;5.90;99.90
13074;DHT22;6603;47.066;15.396;2024-02-23T06:53:10;6.00;99.90
13074;DHT22;6603;47.066;15.396;2024-02-23T06:55:35;6.00;99.90
13074;DHT22;6603;47.066;15.396;2024-02-23T06:58:02;6.10;99.90
13074;DHT22;6603;47.066;15.396;2024-02-23T07:00:30;6.00;99.90
13074;DHT22;6603;47.066;15.396;2024-02-23T07:02:56;6.10;99.90
13074;DHT22;6603;47.066;15.396;2024-02-23T07:05:25;6.10;99.90
13074;DHT22;6603;47.066;15.396;2024-02-23T07:07:51;6.10;99.90
13074;DHT22;6603;47.066;15.396;2024-02-23T07:10:17;6.10;99.90
13074;DHT22;6603;47.066;15.396;2024-02-23T07:12:43;6.20;99.90
13074;DHT22;6603;47.066;15.396;2024-02-23T07:15:10;6.30;99.90
13074;DHT22;6603;47.066;15.396;2024-02-23T07:17:36;6.40;99.90
13074;DHT22;6603;47.066;15.396;2024-02-23T07:20:01;6.40;99.90
13074;DHT22;6603;47.066;15.396;2024-02-23T07:22:32;6.40;99.90
13074;DHT22;6603;47.066;15.396;2024-02-23T07:24:58;6.40;99.90
13074;DHT22;6603;47.066;15.396;2024-02-23T07:27:24;6.40;99.90
13074;DHT22;6603;47.066;15.396;2024-02-23T07:29:49;6.50;99.90
13074;DHT22;6603;47.066;15.396;2024-02-23T07:32:15;6.60;99.90
13074;DHT22;6603;47.066;15.396;2024-02-23T07:34:41;6.60;99.90
13074;DHT22;6603;47.066;15.396;2024-02-23T07:37:07;6.70;99.90
13074;DHT22;6603;47.066;15.396;2024-02-23T07:39:33;6.80;99.90
13074;DHT22;6603;47.066;15.396;2024-02-23T07:41:59;6.90;99.90
13074;DHT22;6603;47.066;15.396;2024-02-23T07:44:24;6.90;99.90
13074;DHT22;6603;47.066;15.396;2024-02-23T07:46:52;6.90;99.90
13074;DHT22;6603;47.066;15.396;2024-02-23T07:49:20;6.80;99.90
13074;DHT22;6603;47.066;15.396;2024-02-23T07:51:48;6.90;99.90
13074;DHT22;6603;47.066;15.396;2024-02-23T07:54:14;6.90;99.90
13074;DHT22;6603;47.066;15.396;2024-02-23T07:56:39;7.00;99.90
13074;DHT22;6603;47.066;15.396;2024-02-23T07:59:05;7.00;99.90
13074;DHT22;6603;47.066;15.396;2024-02-23T08:01:32;7.00;99.90
13074;DHT22;6603;47.066;15.396;2024-02-23T08:03:57;7.10;99.90
13074;DHT22;6603;47.066;15.396;2024-02-23T08:06:24;7.20;99.90
13074;DHT22;6603;47.066;15.396;2024-02-23T08:08:51;7.20;99.90
13074;DHT22;6603;47.066;15.396;2024-02-23T08:11:19;7.20;99.90
13074;DHT22;6603;47.066;15.396;2024-02-23T08:13:45;7.20;99.90
13074;DHT22;6603;47.066;15.396;2024-02-23T08:16:11;7.20;99.90
13074;DHT22;6603;47.066;15.396;2024-02-23T08:18:37;7.30;99.90
13074;DHT22;6603;47.066;15.396;2024-02-23T08:21:03;7.30;99.90
13074;DHT22;6603;47.066;15.396;2024-02-23T08:23:31;7.30;99.90
13074;DHT22;6603;47.066;15.396;2024-02-23T08:25:57;7.40;99.90
13074;DHT22;6603;47.066;15.396;2024-02-23T08:28:24;7.40;99.90
13074;DHT22;6603;47.066;15.396;2024-02-23T08:30:50;7.50;99.90
13074;DHT22;6603;47.066;15.396;2024-02-23T08:33:16;7.50;99.90
13074;DHT22;6603;47.066;15.396;2024-02-23T08:35:42;7.50;99.90
13074;DHT22;6603;47.066;15.396;2024-02-23T08:38:08;7.60;99.90
13074;DHT22;6603;47.066;15.396;2024-02-23T08:40:35;7.60;99.90
13074;DHT22;6603;47.066;15.396;2024-02-23T08:43:01;7.60;99.90
13074;DHT22;6603;47.066;15.396;2024-02-23T08:45:27;7.70;99.90
13074;DHT22;6603;47.066;15.396;2024-02-23T08:47:53;7.70;99.90
13074;DHT22;6603;47.066;15.396;2024-02-23T08:50:19;7.70;99.90
13074;DHT22;6603;47.066;15.396;2024-02-23T08:52:45;7.70;99.90
13074;DHT22;6603;47.066;15.396;2024-02-23T08:55:11;7.80;99.90
13074;DHT22;6603;47.066;15.396;2024-02-23T08:57:37;7.80;99.90
13074;DHT22;6603;47.066;15.396;2024-02-23T09:00:05;7.90;99.90
13074;DHT22;6603;47.066;15.396;2024-02-23T09:02:31;7.90;99.90
13074;DHT22;6603;47.066;15.396;2024-02-23T09:04:58;8.00;99.90
13074;DHT22;6603;47.066;15.396;2024-02-23T09:07:24;8.00;99.90
13074;DHT22;6603;47.066;15.396;2024-02-23T09:09:50;8.00;99.90
13074;DHT22;6603;47.066;15.396;2024-02-23T09:12:16;8.10;99.90
13074;DHT22;6603;47.066;15.396;2024-02-23T09:14:43;8.10;99.90
13074;DHT22;6603;47.066;15.396;2024-02-23T09:17:12;8.10;99.90
13074;DHT22;6603;47.066;15.396;2024-02-23T09:19:38;8.10;99.90
13074;DHT22;6603;47.066;15.396;2024-02-23T09:22:04;8.10;99.90
13074;DHT22;6603;47.066;15.396;2024-02-23T09:24:30;8.10;99.90
13074;DHT22;6603;47.066;15.396;2024-02-23T09:26:56;8.20;99.90
13074;DHT22;6603;47.066;15.396;2024-02-23T09:29:22;8.20;99.90
13074;DHT22;6603;47.066;15.396;2024-02-23T09:31:48;8.20;99.90
13074;DHT22;6603;47.066;15.396;2024-02-23T09:34:14;8.10;99.90
13074;DHT22;6603;47.066;15.396;2024-02-23T09:36:40;8.20;99.90
13074;DHT22;6603;47.066;15.396;2024-02-23T09:39:07;8.20;99.90
13074;DHT22;6603;47.066;15.396;2024-02-23T09:41:33;8.20;99.90
13074;DHT22;6603;47.066;15.396;2024-02-23T09:44:01;8.20;99.90
13074;DHT22;6603;47.066;15.396;2024-02-23T09:46:28;8.20;99.90
13074;DHT22;6603;47.066;15.396;2024-02-23T09:48:55;8.30;99.90
13074;DHT22;6603;47.066;15.396;2024-02-23T09:51:23;8.40;99.90
13074;DHT22;6603;47.066;15.396;2024-02-23T09:53:52;8.40;99.90
13074;DHT22;6603;47.066;15.396;2024-02-23T09:56:21;8.40;99.90
13074;DHT22;6603;47.066;15.396;2024-02-23T09:58:49;8.40;99.90
13074;DHT22;6603;47.066;15.396;2024-02-23T10:01:21;8.40;99.90
13074;DHT22;6603;47.066;15.396;2024-02-23T10:03:51;8.40;99.90
13074;DHT22;6603;47.066;15.396;2024-02-23T10:06:17;8.40;99.90
13074;DHT22;6603;47.066;15.396;2024-02-23T10:08:43;8.40;99.90
13074;DHT22;6603;47.066;15.396;2024-02-23T10:11:09;8.40;99.90
13074;DHT22;6603;47.066;15.396;2024-02-23T10:13:35;8.40;99.90
13074;DHT22;6603;47.066;15.396;2024-02-23T10:16:01;8.40;99.90
13074;DHT22;6603;47.066;15.396;2024-02-23T10:18:27;8.40;99.90
13074;DHT22;6603;47.066;15.396;2024-02-23T10:20:53;8.40;99.90
13074;DHT22;6603;47.066;15.396;2024-02-23T10:23:19;8.40;99.90
13074;DHT22;6603;47.066;15.396;2024-02-23T10:25:46;8.30;99.90
13074;DHT22;6603;47.066;15.396;2024-02-23T10:28:12;8.40;99.90
13074;DHT22;6603;47.066;15.396;2024-02-23T10:30:37;8.30;99.90
13074;DHT22;6603;47.066;15.396;2024-02-23T10:33:05;8.40;99.90
13074;DHT22;6603;47.066;15.396;2024-02-23T10:35:32;8.40;99.90
13074;DHT22;6603;47.066;15.396;2024-02-23T10:38:01;8.40;99.90
13074;DHT22;6603;47.066;15.396;2024-02-23T10:40:30;8.50;99.90
13074;DHT22;6603;47.066;15.396;2024-02-23T10:43:03;8.50;99.90
13074;DHT22;6603;47.066;15.396;2024-02-23T10:45:31;8.50;99.90
13074;DHT22;6603;47.066;15.396;2024-02-23T10:47:58;8.50;99.90
13074;DHT22;6603;47.066;15.396;2024-02-23T10:50:25;8.50;99.90
13074;DHT22;6603;47.066;15.396;2024-02-23T10:52:52;8.50;99.90
13074;DHT22;6603;47.066;15.396;2024-02-23T10:55:18;8.50;99.90
13074;DHT22;6603;47.066;15.396;2024-02-23T10:57:45;8.60;99.90
13074;DHT22;6603;47.066;15.396;2024-02-23T11:00:14;8.60;99.90
13074;DHT22;6603;47.066;15.396;2024-02-23T11:02:49;8.60;99.90
13074;DHT22;6603;47.066;15.396;2024-02-23T11:05:16;8.60;99.90
13074;DHT22;6603;47.066;15.396;2024-02-23T11:07:42;8.60;99.90
13074;DHT22;6603;47.066;15.396;2024-02-23T11:10:08;8.60;99.90
13074;DHT22;6603;47.066;15.396;2024-02-23T11:12:37;8.60;99.90
13074;DHT22;6603;47.066;15.396;2024-02-23T11:15:03;8.70;99.90
13074;DHT22;6603;47.066;15.396;2024-02-23T11:17:31;8.80;99.90
13074;DHT22;6603;47.066;15.396;2024-02-23T11:19:58;8.80;99.90
13074;DHT22;6603;47.066;15.396;2024-02-23T11:22:31;8.90;99.90
13074;DHT22;6603;47.066;15.396;2024-02-23T11:25:04;8.90;99.90
13074;DHT22;6603;47.066;15.396;2024-02-23T11:27:38;8.90;99.90
13074;DHT22;6603;47.066;15.396;2024-02-23T11:30:10;8.90;99.90
13074;DHT22;6603;47.066;15.396;2024-02-23T11:32:39;8.80;99.90
13074;DHT22;6603;47.066;15.396;2024-02-23T11:35:07;8.80;99.90
13074;DHT22;6603;47.066;15.396;2024-02-23T11:40:12;8.80;99.90
13074;DHT22;6603;47.066;15.396;2024-02-23T11:42:41;8.90;99.90
13074;DHT22;6603;47.066;15.396;2024-02-23T11:45:07;8.90;99.90
13074;DHT22;6603;47.066;15.396;2024-02-23T11:47:33;8.90;99.90
13074;DHT22;6603;47.066;15.396;2024-02-23T11:49:59;9.00;99.90
13074;DHT22;6603;47.066;15.396;2024-02-23T11:52:25;8.90;99.90
13074;DHT22;6603;47.066;15.396;2024-02-23T11:54:51;9.00;99.90
13074;DHT22;6603;47.066;15.396;2024-02-23T11:57:18;9.10;99.90
13074;DHT22;6603;47.066;15.396;2024-02-23T11:59:44;9.10;99.90
13074;DHT22;6603;47.066;15.396;2024-02-23T12:02:10;9.20;99.90
13074;DHT22;6603;47.066;15.396;2024-02-23T12:04:38;9.30;99.90
13074;DHT22;6603;47.066;15.396;2024-02-23T12:07:04;9.40;99.90
13074;DHT22;6603;47.066;15.396;2024-02-23T12:09:30;9.40;99.90
13074;DHT22;6603;47.066;15.396;2024-02-23T12:11:57;9.40;99.90
13074;DHT22;6603;47.066;15.396;2024-02-23T12:14:24;9.40;99.90
13074;DHT22;6603;47.066;15.396;2024-02-23T12:16:52;9.40;99.90
13074;DHT22;6603;47.066;15.396;2024-02-23T12:19:18;9.40;99.90
13074;DHT22;6603;47.066;15.396;2024-02-23T12:21:46;9.30;99.90
13074;DHT22;6603;47.066;15.396;2024-02-23T12:24:12;9.30;99.90
13074;DHT22;6603;47.066;15.396;2024-02-23T12:26:38;9.40;99.90
13074;DHT22;6603;47.066;15.396;2024-02-23T12:29:05;9.40;99.90
13074;DHT22;6603;47.066;15.396;2024-02-23T12:31:32;9.30;99.90
13074;DHT22;6603;47.066;15.396;2024-02-23T12:33:59;9.30;99.90
13074;DHT22;6603;47.066;15.396;2024-02-23T12:36:26;9.40;99.90
13074;DHT22;6603;47.066;15.396;2024-02-23T12:38:52;9.30;99.90
13074;DHT22;6603;47.066;15.396;2024-02-23T12:41:17;9.20;99.90
13074;DHT22;6603;47.066;15.396;2024-02-23T12:43:43;9.30;99.90
13074;DHT22;6603;47.066;15.396;2024-02-23T12:46:09;9.30;99.90
13074;DHT22;6603;47.066;15.396;2024-02-23T12:48:38;9.20;99.90
13074;DHT22;6603;47.066;15.396;2024-02-23T12:51:04;9.20;99.90
13074;DHT22;6603;47.066;15.396;2024-02-23T12:53:35;9.20;99.90
13074;DHT22;6603;47.066;15.396;2024-02-23T12:56:06;9.20;99.90
13074;DHT22;6603;47.066;15.396;2024-02-23T12:58:35;9.20;99.90
13074;DHT22;6603;47.066;15.396;2024-02-23T13:01:01;9.20;99.90
13074;DHT22;6603;47.066;15.396;2024-02-23T13:03:28;9.20;99.90
13074;DHT22;6603;47.066;15.396;2024-02-23T13:05:55;9.20;99.90
13074;DHT22;6603;47.066;15.396;2024-02-23T13:08:22;9.20;99.90
13074;DHT22;6603;47.066;15.396;2024-02-23T13:10:49;9.10;99.90
13074;DHT22;6603;47.066;15.396;2024-02-23T13:13:15;9.10;99.90
13074;DHT22;6603;47.066;15.396;2024-02-23T13:15:43;9.10;99.90
13074;DHT22;6603;47.066;15.396;2024-02-23T13:18:09;9.00;99.90
13074;DHT22;6603;47.066;15.396;2024-02-23T13:20:37;9.20;99.90
13074;DHT22;6603;47.066;15.396;2024-02-23T13:23:03;9.20;99.90
13074;DHT22;6603;47.066;15.396;2024-02-23T13:25:29;9.20;99.90
13074;DHT22;6603;47.066;15.396;2024-02-23T13:27:55;9.10;99.90
13074;DHT22;6603;47.066;15.396;2024-02-23T13:30:21;9.10;99.90
13074;DHT22;6603;47.066;15.396;2024-02-23T13:32:47;9.20;99.90
13074;DHT22;6603;47.066;15.396;2024-02-23T13:35:13;9.20;99.90
13074;DHT22;6603;47.066;15.396;2024-02-23T13:37:41;9.10;99.90
13074;DHT22;6603;47.066;15.396;2024-02-23T13:40:09;9.10;99.90
13074;DHT22;6603;47.066;15.396;2024-02-23T13:42:36;9.20;99.90
13074;DHT22;6603;47.066;15.396;2024-02-23T13:45:06;9.10;99.90
13074;DHT22;6603;47.066;15.396;2024-02-23T13:47:32;9.10;99.90
13074;DHT22;6603;47.066;15.396;2024-02-23T13:49:58;9.00;99.90
13074;DHT22;6603;47.066;15.396;2024-02-23T13:52:24;9.00;99.90
13074;DHT22;6603;47.066;15.396;2024-02-23T13:54:50;9.00;99.90
13074;DHT22;6603;47.066;15.396;2024-02-23T13:57:16;9.00;99.90
13074;DHT22;6603;47.066;15.396;2024-02-23T13:59:42;8.90;99.90
13074;DHT22;6603;47.066;15.396;2024-02-23T14:02:08;8.90;99.90
13074;DHT22;6603;47.066;15.396;2024-02-23T14:04:35;9.00;99.90
13074;DHT22;6603;47.066;15.396;2024-02-23T14:07:01;8.90;99.90
13074;DHT22;6603;47.066;15.396;2024-02-23T14:09:27;8.90;99.90
13074;DHT22;6603;47.066;15.396;2024-02-23T14:11:53;8.90;99.90
13074;DHT22;6603;47.066;15.396;2024-02-23T14:14:20;8.90;99.90
13074;DHT22;6603;47.066;15.396;2024-02-23T14:16:46;8.90;99.90
13074;DHT22;6603;47.066;15.396;2024-02-23T14:19:12;8.90;99.90
13074;DHT22;6603;47.066;15.396;2024-02-23T14:21:38;8.90;99.90
13074;DHT22;6603;47.066;15.396;2024-02-23T14:24:03;8.90;99.90
13074;DHT22;6603;47.066;15.396;2024-02-23T14:26:29;8.90;99.90
13074;DHT22;6603;47.066;15.396;2024-02-23T14:28:55;8.90;99.90
13074;DHT22;6603;47.066;15.396;2024-02-23T14:31:22;8.80;99.90
13074;DHT22;6603;47.066;15.396;2024-02-23T14:33:47;8.80;99.90
13074;DHT22;6603;47.066;15.396;2024-02-23T14:36:18;8.80;99.90
13074;DHT22;6603;47.066;15.396;2024-02-23T14:38:44;8.80;99.90
13074;DHT22;6603;47.066;15.396;2024-02-23T14:41:11;8.80;99.90
13074;DHT22;6603;47.066;15.396;2024-02-23T14:43:37;8.80;99.90
13074;DHT22;6603;47.066;15.396;2024-02-23T14:46:03;8.80;99.90
13074;DHT22;6603;47.066;15.396;2024-02-23T14:48:31;8.80;99.90
13074;DHT22;6603;47.066;15.396;2024-02-23T14:50:57;8.70;99.90
13074;DHT22;6603;47.066;15.396;2024-02-23T14:53:28;8.70;99.90
13074;DHT22;6603;47.066;15.396;2024-02-23T14:55:54;8.70;99.90
13074;DHT22;6603;47.066;15.396;2024-02-23T15:00:48;8.70;99.90
13074;DHT22;6603;47.066;15.396;2024-02-23T15:03:14;8.70;99.90
13074;DHT22;6603;47.066;15.396;2024-02-23T15:05:41;8.70;99.90
13074;DHT22;6603;47.066;15.396;2024-02-23T15:08:07;8.70;99.90
13074;DHT22;6603;47.066;15.396;2024-02-23T15:10:33;8.60;99.90
13074;DHT22;6603;47.066;15.396;2024-02-23T15:13:00;8.60;99.90
13074;DHT22;6603;47.066;15.396;2024-02-23T15:15:25;8.60;99.90
13074;DHT22;6603;47.066;15.396;2024-02-23T15:17:52;8.60;99.90
13074;DHT22;6603;47.066;15.396;2024-02-23T15:20:18;8.60;99.90
13074;DHT22;6603;47.066;15.396;2024-02-23T15:22:45;8.60;99.90
13074;DHT22;6603;47.066;15.396;2024-02-23T15:25:12;8.50;99.90
13074;DHT22;6603;47.066;15.396;2024-02-23T15:27:38;8.60;99.90
13074;DHT22;6603;47.066;15.396;2024-02-23T15:30:06;8.60;99.90
13074;DHT22;6603;47.066;15.396;2024-02-23T15:32:36;8.50;99.90
13074;DHT22;6603;47.066;15.396;2024-02-23T15:35:03;8.50;99.90
13074;DHT22;6603;47.066;15.396;2024-02-23T15:37:30;8.50;99.90
13074;DHT22;6603;47.066;15.396;2024-02-23T15:39:56;8.50;99.90
13074;DHT22;6603;47.066;15.396;2024-02-23T15:42:22;8.50;99.90
13074;DHT22;6603;47.066;15.396;2024-02-23T15:44:48;8.50;99.90